Time;durP1;ratioP1;P1;durP2;ratioP2;P2;SDS_P1;SDS_P2;PMS_P1;PMS_P2;Temp;Humidity;BMP_temperature;BMP_pressure;BME280_temperature;BME280_humidity;BME280_pressure;Samples;Min_cycle;Max_cycle;Signal;HPM_P1;HPM_P2
2021/07/08 05:04:52;;;;;;;;;4.67;4.00;;;;;18.05;56.23;101707.91;5285206;23;45852;-89
2021/07/08 05:07:17;;;;;;;;;5.67;5.67;;;;;18.05;56.74;101706.16;4881980;29;45282;-85
2021/07/08 05:09:43;;;;;;;;;6.00;5.33;;;;;18.07;56.17;101708.81;4883950;29;45348;-83
2021/07/08 05:12:09;;;;;;;;;6.67;5.00;;;;;18.10;56.61;101715.91;4884202;29;45368;-84
2021/07/08 05:14:34;;;;;;;;;5.00;5.00;;;;;18.05;56.77;101703.47;4884046;29;45590;-86
2021/07/08 05:17:01;;;;;;;;;5.67;5.33;;;;;18.10;56.85;101716.81;4883676;29;45312;-86
2021/07/08 05:19:27;;;;;;;;;10.33;6.00;;;;;18.17;55.99;101723.03;4883933;29;45360;-86
2021/07/08 05:21:54;;;;;;;;;8.00;6.00;;;;;18.18;56.52;101724.81;4883921;29;45358;-86
2021/07/08 05:24:24;;;;;;;;;5.33;5.33;;;;;18.16;56.42;101714.16;4883583;29;46272;-86
2021/07/08 05:26:50;;;;;;;;;4.00;4.00;;;;;18.20;56.51;101728.38;4883323;29;45536;-85
2021/07/08 05:29:16;;;;;;;;;8.00;6.00;;;;;18.17;56.79;101720.38;4883431;29;45371;-85
2021/07/08 05:31:42;;;;;;;;;6.00;4.00;;;;;18.24;56.75;101721.28;4883742;29;45292;-86
2021/07/08 05:34:08;;;;;;;;;4.33;4.33;;;;;18.28;56.80;101723.06;4883484;29;46333;-86
2021/07/08 05:36:33;;;;;;;;;4.67;4.67;;;;;18.30;56.35;101729.25;4883803;29;45370;-85
2021/07/08 05:38:59;;;;;;;;;6.67;5.33;;;;;18.28;57.15;101723.06;4883577;29;45347;-84
2021/07/08 05:41:24;;;;;;;;;7.67;5.67;;;;;18.34;56.48;101728.38;4883804;29;45241;-85
2021/07/08 05:43:50;;;;;;;;;7.00;7.00;;;;;18.39;56.98;101737.28;4883309;29;45279;-86
2021/07/08 05:46:16;;;;;;;;;9.00;7.00;;;;;18.38;56.52;101731.94;4883097;29;45225;-84
2021/07/08 05:48:41;;;;;;;;;8.00;8.00;;;;;18.46;56.18;101746.16;4883393;29;45265;-85
2021/07/08 05:51:06;;;;;;;;;6.67;5.33;;;;;18.51;56.78;101743.47;4883733;29;45291;-85
2021/07/08 05:53:32;;;;;;;;;4.67;4.67;;;;;18.56;56.77;101749.69;4883243;29;45272;-85
2021/07/08 05:55:57;;;;;;;;;7.00;4.67;;;;;18.55;57.36;101739.91;4883405;29;45275;-85
2021/07/08 05:58:22;;;;;;;;;8.00;5.00;;;;;18.62;57.11;101736.38;4883483;29;45305;-84
2021/07/08 06:00:48;;;;;;;;;7.33;5.67;;;;;18.74;56.95;101746.13;4866609;29;45517;-86
2021/07/08 06:03:17;;;;;;;;;6.33;4.33;;;;;18.80;56.91;101745.25;4882808;29;46361;-84
2021/07/08 06:05:43;;;;;;;;;10.33;6.00;;;;;18.81;56.57;101732.81;4865734;29;45445;-83
2021/07/08 06:08:08;;;;;;;;;4.67;4.00;;;;;18.89;56.42;101740.81;4883173;29;45415;-83
2021/07/08 06:10:34;;;;;;;;;6.67;6.00;;;;;18.95;57.33;101740.81;4883481;29;45189;-84
2021/07/08 06:13:00;;;;;;;;;6.00;6.00;;;;;19.00;56.50;101740.78;4882734;29;47218;-82
2021/07/08 06:15:25;;;;;;;;;6.00;5.00;;;;;19.02;56.93;101750.53;4882453;29;45283;-84
2021/07/08 06:17:51;;;;;;;;;5.33;4.33;;;;;19.06;57.47;101756.75;4865849;29;45296;-83
2021/07/08 06:20:17;;;;;;;;;6.67;5.33;;;;;19.10;56.82;101759.41;4883250;29;45310;-83
2021/07/08 06:22:45;;;;;;;;;7.00;4.33;;;;;19.10;56.66;101756.75;4882830;29;46179;-83
2021/07/08 06:25:12;;;;;;;;;12.33;7.00;;;;;19.15;56.56;101767.44;4864828;29;45370;-83
2021/07/08 06:27:38;;;;;;;;;6.67;5.00;;;;;19.17;56.95;101760.31;4894043;29;45365;-86
2021/07/08 06:30:08;;;;;;;;;6.33;6.33;;;;;19.24;57.77;101766.53;4902463;29;45512;-83
2021/07/08 06:32:34;;;;;;;;;7.00;6.00;;;;;19.26;56.90;101775.41;4907499;29;45326;-89
2021/07/08 06:38:03;;;;;;;;;6.33;5.00;;;;;19.16;56.74;101757.69;4871021;29;45279;-91
2021/07/08 06:40:29;;;;;;;;;5.00;5.00;;;;;19.17;57.40;101751.44;4877822;29;45427;-90
2021/07/08 06:42:58;;;;;;;;;5.00;5.00;;;;;19.36;57.27;101786.03;4888734;29;45520;-90
2021/07/08 06:45:23;;;;;;;;;6.33;5.00;;;;;19.27;56.52;101765.66;4873624;29;44865;-91
2021/07/08 06:47:50;;;;;;;;;8.00;7.00;;;;;19.30;57.30;101765.63;4869574;29;44862;-91
2021/07/08 06:50:17;;;;;;;;;7.00;5.67;;;;;19.30;56.79;101779.84;4866342;29;44904;-91
2021/07/08 06:52:48;;;;;;;;;5.00;5.00;;;;;19.20;56.79;101762.09;4880685;29;45162;-92
2021/07/08 06:55:14;;;;;;;;;7.00;5.00;;;;;19.30;56.53;101782.53;4859106;29;45392;-89
2021/07/08 06:57:52;;;;;;;;;7.67;6.67;;;;;19.30;56.53;101785.19;4852777;29;45262;-90
2021/07/08 07:00:25;;;;;;;;;6.00;6.00;;;;;19.26;56.78;101785.19;4868031;29;45312;-91
2021/07/08 07:02:55;;;;;;;;;6.00;6.00;;;;;19.24;57.35;101787.88;4853950;29;48555;-89
2021/07/08 07:05:22;;;;;;;;;9.00;5.00;;;;;19.25;57.10;101780.75;4853152;29;45363;-91
2021/07/08 07:07:48;;;;;;;;;6.33;6.00;;;;;19.29;56.81;101791.38;4850419;29;45418;-91
2021/07/08 07:10:15;;;;;;;;;5.67;4.00;;;;;19.27;57.08;101790.50;4852692;29;45366;-89
2021/07/08 07:12:47;;;;;;;;;9.33;6.00;;;;;19.36;57.02;101810.94;4851399;29;47129;-91
2021/07/08 07:15:15;;;;;;;;;7.67;6.33;;;;;19.38;56.92;101810.91;4873310;29;45508;-91
2021/07/08 07:17:52;;;;;;;;;7.00;6.00;;;;;19.20;56.66;101779.00;4891073;29;45292;-89
2021/07/08 07:20:21;;;;;;;;;6.67;4.33;;;;;19.32;56.83;101804.72;4892860;29;45449;-91
2021/07/08 07:22:47;;;;;;;;;7.33;5.00;;;;;19.35;57.53;101810.94;4889345;29;46868;-91
2021/07/08 07:25:15;;;;;;;;;5.00;5.00;;;;;19.17;57.05;101784.31;4889438;29;45311;-90
2021/07/08 07:27:41;;;;;;;;;14.33;7.00;;;;;19.35;57.55;101809.19;4884249;29;45205;-92
2021/07/08 07:30:08;;;;;;;;;7.67;5.67;;;;;19.33;57.75;101811.81;4889859;29;45454;-92
2021/07/08 07:32:34;;;;;;;;;9.00;4.67;;;;;19.28;57.88;101802.97;4889717;29;48453;-92
2021/07/08 07:35:00;;;;;;;;;7.33;6.33;;;;;19.25;57.73;101788.75;4896699;29;45361;-91
2021/07/08 07:37:27;;;;;;;;;5.00;5.00;;;;;19.31;58.14;101810.94;4898864;29;45277;-91
2021/07/08 07:39:53;;;;;;;;;6.33;6.33;;;;;19.23;57.44;101795.88;4897374;29;45549;-91
2021/07/08 07:42:19;;;;;;;;;9.33;6.00;;;;;19.30;57.54;101817.16;4891085;29;47962;-91
2021/07/08 07:44:46;;;;;;;;;6.00;6.00;;;;;19.22;57.30;101810.97;4889632;29;45415;-91
2021/07/08 07:47:15;;;;;;;;;7.00;7.00;;;;;19.20;57.83;101810.09;4888833;29;45275;-91
2021/07/08 07:49:52;;;;;;;;;7.67;7.67;;;;;19.27;58.29;101821.63;4889189;29;45458;-92
2021/07/08 07:52:18;;;;;;;;;8.33;6.67;;;;;19.19;57.34;101809.19;4888444;29;47454;-91
2021/07/08 07:54:43;;;;;;;;;8.33;6.33;;;;;19.29;57.39;101825.19;4898817;29;45414;-91
2021/07/08 07:57:09;;;;;;;;;6.00;5.00;;;;;19.12;57.73;101803.84;4920229;29;44675;-90
2021/07/08 07:59:37;;;;;;;;;6.33;6.00;;;;;19.21;57.68;101820.75;4901025;29;45244;-91
2021/07/08 08:02:13;;;;;;;;;6.67;5.00;;;;;19.21;57.44;101823.41;4899584;29;47418;-91
2021/07/08 08:04:54;;;;;;;;;6.00;6.00;;;;;19.17;58.09;101802.06;4900685;29;45284;-91
2021/07/08 08:10:04;;;;;;;;;6.67;5.67;;;;;19.26;57.72;101807.41;4922227;29;45411;-91
2021/07/08 08:12:30;;;;;;;;;4.00;4.00;;;;;19.28;57.83;101805.63;4900513;29;47332;-90
2021/07/08 08:15:01;;;;;;;;;6.00;5.33;;;;;19.41;57.76;101816.25;4895588;29;45255;-90
2021/07/08 08:17:37;;;;;;;;;;;;;;;;;;;;;
2021/07/08 08:20:04;;;;;;;;;5.00;4.00;;;;;19.52;57.45;101802.91;4909520;29;63648;-89
2021/07/08 08:22:35;;;;;;;;;8.00;4.33;;;;;19.64;57.05;101797.53;4894758;29;48285;-91
2021/07/08 08:25:00;;;;;;;;;5.00;3.00;;;;;19.95;57.67;101824.97;4893530;29;44829;-90
2021/07/08 08:27:26;;;;;;;;;3.00;3.00;;;;;20.10;57.29;101821.38;4915434;29;45435;-89
2021/07/08 08:29:54;;;;;;;;;4.33;4.33;;;;;20.29;56.99;101813.25;4893561;29;45322;-91
2021/07/08 08:32:32;;;;;;;;;;;;;;;;;;;;;
2021/07/08 08:35:01;;;;;;;;;4.33;4.33;;;;;20.73;56.21;101815.63;4912277;29;71710;-91
2021/07/08 08:37:26;;;;;;;;;4.00;4.00;;;;;20.75;55.87;101793.34;4895216;29;44792;-90
2021/07/08 08:39:52;;;;;;;;;7.00;6.33;;;;;20.98;55.71;101794.06;4913043;29;45387;-90
2021/07/08 08:42:20;;;;;;;;;4.00;4.00;;;;;21.41;56.02;101814.13;4910840;29;45419;-90
2021/07/08 08:44:46;;;;;;;;;3.00;3.00;;;;;21.83;55.71;101802.03;4889515;29;45677;-90
2021/07/08 08:47:11;;;;;;;;;4.00;4.00;;;;;22.24;54.03;101799.75;4888402;29;45281;-91
2021/07/08 08:49:53;;;;;;;;;;;;;;;;;;;;;
2021/07/08 08:52:19;;;;;;;;;6.67;5.67;;;;;22.09;53.70;101806.19;4905565;29;74416;-91
2021/07/08 08:54:58;;;;;;;;;;;;;;;;;;;;;
2021/07/08 08:57:28;;;;;;;;;5.00;5.00;;;;;21.94;52.87;101808.19;4903485;29;67941;-91
2021/07/08 09:00:06;;;;;;;;;;;;;;;;;;;;;
2021/07/08 09:02:32;;;;;;;;;5.67;5.33;;;;;22.00;53.25;101804.53;4902978;29;75087;-92
2021/07/08 09:05:07;;;;;;;;;;;;;;;;;;;;;
2021/07/08 09:07:34;;;;;;;;;5.33;4.00;;;;;22.78;53.00;101806.06;4903264;29;68935;-91
2021/07/08 09:10:29;;;;;;;;;;;;;;;;;;;;;
2021/07/08 09:12:58;;;;;;;;;7.00;5.00;;;;;23.76;50.23;101805.16;4903902;29;75094;-91
2021/07/08 09:15:24;;;;;;;;;3.00;3.00;;;;;24.14;49.13;101816.00;4892054;29;45430;-90
2021/07/08 09:17:52;;;;;;;;;5.00;3.33;;;;;24.37;48.60;101806.53;4889436;29;45225;-90
2021/07/08 09:20:19;;;;;;;;;4.67;4.67;;;;;24.62;48.59;101780.88;4887898;29;45264;-91
2021/07/08 09:22:50;;;;;;;;;6.00;3.67;;;;;25.10;49.25;101805.66;4905171;29;45459;-92
2021/07/08 09:25:25;;;;;;;;;5.00;5.00;;;;;25.25;47.19;101803.47;4888538;29;45303;-91
2021/07/08 09:28:09;;;;;;;;;4.00;2.00;;;;;25.14;47.04;101795.69;4888989;29;45459;-91
2021/07/08 09:30:51;;;;;;;;;;;;;;;;;;;;;
2021/07/08 09:33:40;;;;;;;;;;;;;;;;;;;;;
2021/07/08 09:36:19;;;;;;;;;5.00;5.00;;;;;24.67;46.92;101799.56;4902982;29;74071;-91
2021/07/08 09:38:49;;;;;;;;;4.00;3.67;;;;;24.62;46.81;101816.69;4883649;29;45466;-92
2021/07/08 09:41:32;;;;;;;;;;;;;;;;;;;;;
2021/07/08 09:44:05;;;;;;;;;3.00;3.00;;;;;24.71;47.29;101801.25;4908566;29;76679;-91
2021/07/08 09:46:44;;;;;;;;;5.33;4.67;;;;;25.01;46.61;101805.91;4890499;29;45440;-91
2021/07/08 09:49:15;;;;;;;;;5.00;4.00;;;;;25.17;46.76;101803.69;4886728;29;45210;-90
2021/07/08 09:51:45;;;;;;;;;5.00;4.00;;;;;25.12;45.85;101786.78;4887049;29;45433;-91
2021/07/08 09:54:23;;;;;;;;;;;;;;;;;;;;;
2021/07/08 09:56:50;;;;;;;;;6.00;6.00;;;;;25.18;45.64;101797.38;4896090;29;72357;-92
2021/07/08 09:59:51;;;;;;;;;;;;;;;;;;;;;
2021/07/08 10:02:37;;;;;;;;;4.00;4.00;;;;;25.61;46.17;101780.94;4825186;29;65177;-91
2021/07/08 10:05:06;;;;;;;;;5.00;5.00;;;;;25.99;45.47;101810.34;4810865;29;47579;-92
2021/07/08 10:07:37;;;;;;;;;4.00;4.00;;;;;25.95;44.93;101804.19;4810773;29;45407;-91
2021/07/08 10:10:19;;;;;;;;;;;;;;;;;;;;;
2021/07/08 10:12:48;;;;;;;;;5.00;5.00;;;;;26.05;43.36;101820.94;4825841;29;64284;-92
2021/07/08 10:15:22;;;;;;;;;3.00;2.00;;;;;26.02;43.17;101786.91;4810859;29;47429;-92
2021/07/08 10:17:48;;;;;;;;;5.00;5.00;;;;;26.23;43.27;101797.91;4812054;29;45350;-91
2021/07/08 10:20:25;;;;;;;;;2.00;2.00;;;;;26.28;43.21;101805.84;4811711;29;45556;-92
2021/07/08 10:22:53;;;;;;;;;3.00;3.00;;;;;26.12;41.96;101795.56;4811662;29;45493;-92
2021/07/08 10:25:31;;;;;;;;;;;;;;;;;;;;;
2021/07/08 10:28:08;;;;;;;;;;;;;;;;;;;;;
2021/07/08 10:30:54;;;;;;;;;;;;;;;;;;;;;
2021/07/08 10:33:40;;;;;;;;;4.67;4.67;;;;;25.53;42.40;101794.63;4825706;29;63667;-92
2021/07/08 10:39:53;;;;;;;;;6.67;4.67;;;;;25.60;42.03;101793.50;4755004;29;45262;-92
2021/07/08 10:42:52;;;;;;;;;3.00;3.00;;;;;25.58;41.76;101819.59;4773915;29;45457;-92
2021/07/08 10:45:45;;;;;;;;;3.33;3.33;;;;;25.43;42.10;101819.09;4760154;29;45413;-92
2021/07/08 10:48:38;;;;;;;;;5.67;4.67;;;;;25.35;43.19;101804.09;4766180;29;47348;-92
2021/07/08 10:51:23;;;;;;;;;5.00;4.00;;;;;25.36;42.84;101797.81;4767671;29;45008;-92
2021/07/08 10:54:59;;;;;;;;;;;;;;;;;;;;;
2021/07/08 10:57:50;;;;;;;;;;;;;;;;;;;;;
2021/07/08 11:00:50;;;;;;;;;8.00;5.00;;;;;25.08;42.81;101823.66;4704969;29;73700;-93
2021/07/08 11:04:04;;;;;;;;;;;;;;;;;;;;;
2021/07/08 11:07:09;;;;;;;;;;;;;;;;;;;;;
2021/07/08 11:10:06;;;;;;;;;8.00;5.67;;;;;24.83;43.14;101832.34;4701492;30;45535;-93
2021/07/08 11:12:47;;;;;;;;;;;;;;;;;;;;;
2021/07/08 11:15:54;;;;;;;;;;;;;;;;;;;;;
2021/07/08 11:19:12;;;;;;;;;;;;;;;;;;;;;
2021/07/08 11:22:09;;;;;;;;;;;;;;;;;;;;;
2021/07/08 11:36:10;;;;;;;;;;;;;;;;;;;;;
2021/07/08 11:39:07;;;;;;;;;4.00;4.00;;;;;24.21;43.58;101827.47;4643771;30;46069;-93
2021/07/08 11:42:35;;;;;;;;;;;;;;;;;;;;;
2021/07/08 11:52:12;;;;;;;;;;;;;;;;;;;;;
2021/07/08 11:55:37;;;;;;;;;4.00;4.00;;;;;24.45;42.89;101810.84;4797720;29;71870;-92
2021/07/08 12:02:42;;;;;;;;;;;;;;;;;;;;;
2021/07/08 12:05:53;;;;;;;;;3.67;3.67;;;;;25.02;43.18;101811.25;4558457;31;74307;-92
2021/07/08 12:15:23;;;;;;;;;5.33;5.33;;;;;25.37;43.02;101813.00;4857962;29;45274;-92
2021/07/08 12:43:26;;;;;;;;;;;;;;;;;;;;;
2021/07/08 12:53:05;;;;;;;;;;;;;;;;;;;;;
2021/07/08 12:56:03;;;;;;;;;;;;;;;;;;;;;
2021/07/08 12:59:03;;;;;;;;;4.00;4.00;;;;;25.01;41.10;101825.63;4691432;30;67729;-92
2021/07/08 13:05:49;;;;;;;;;;;;;;;;;;;;;
2021/07/08 14:47:35;;;;;;;;;5.00;4.00;;;;;24.14;42.76;101789.13;5060053;23;45866;-91
2021/07/08 14:50:53;;;;;;;;;;;;;;;;;;;;;
2021/07/08 14:53:29;;;;;;;;;3.00;3.00;;;;;24.13;43.13;101798.13;4828025;29;67168;-93
2021/07/08 14:56:30;;;;;;;;;4.00;3.00;;;;;24.12;43.94;101790.06;4823440;29;45407;-92
2021/07/08 14:59:38;;;;;;;;;;;;;;;;;;;;;
2021/07/08 15:02:52;;;;;;;;;;;;;;;;;;;;;
2021/07/08 15:06:23;;;;;;;;;;;;;;;;;;;;;
2021/07/08 15:09:11;;;;;;;;;4.00;4.00;;;;;24.06;43.05;101801.84;4772290;29;65293;-93
2021/07/08 15:12:08;;;;;;;;;7.00;4.33;;;;;24.11;43.30;101810.69;5038368;23;46841;-92
2021/07/08 15:14:57;;;;;;;;;3.67;3.67;;;;;24.03;44.08;101812.66;4889522;29;44805;-92
2021/07/08 15:17:49;;;;;;;;;4.00;4.00;;;;;23.90;43.63;101786.06;4889034;29;45310;-94
2021/07/08 15:21:27;;;;;;;;;;;;;;;;;;;;;
2021/07/08 15:24:18;;;;;;;;;;;;;;;;;;;;;
2021/07/08 15:27:39;;;;;;;;;;;;;;;;;;;;;
2021/07/08 15:30:59;;;;;;;;;;;;;;;;;;;;;
2021/07/08 15:37:39;;;;;;;;;3.00;3.00;;;;;23.87;44.37;101829.09;4760803;29;46487;-93
2021/07/08 15:40:20;;;;;;;;;2.00;2.00;;;;;23.84;43.70;101813.06;4735273;30;44800;-91
2021/07/08 15:43:45;;;;;;;;;;;;;;;;;;;;;
2021/07/08 15:46:36;;;;;;;;;3.00;3.00;;;;;23.71;43.84;101815.13;4647384;30;64138;-92
2021/07/08 15:56:48;;;;;;;;;3.67;3.33;;;;;23.67;43.29;101810.75;4552146;31;45418;-92
2021/07/08 16:00:27;;;;;;;;;3.00;3.00;;;;;23.58;43.64;101803.78;4557573;31;45587;-93
2021/07/08 16:03:00;;;;;;;;;2.33;2.33;;;;;23.51;43.80;101792.28;4557077;31;46796;-93
2021/07/08 16:06:13;;;;;;;;;;;;;;;;;;;;;
2021/07/08 16:08:55;;;;;;;;;;;;;;;;;;;;;
2021/07/08 16:11:45;;;;;;;;;3.00;3.00;;;;;23.53;43.96;101789.53;4562051;31;65205;-94
2021/07/08 16:14:47;;;;;;;;;;;;;;;;;;;;;
2021/07/08 16:17:53;;;;;;;;;3.67;3.00;;;;;23.59;43.85;101802.84;4558184;31;74311;-92
2021/07/08 16:20:36;;;;;;;;;;;;;;;;;;;;;
2021/07/08 16:23:16;;;;;;;;;3.00;3.00;;;;;23.41;43.63;101780.81;4628819;30;64706;-92
2021/07/08 16:26:00;;;;;;;;;;;;;;;;;;;;;
2021/07/08 16:28:43;;;;;;;;;3.00;3.00;;;;;23.46;43.55;101803.09;4683220;29;72403;-92
2021/07/08 16:31:17;;;;;;;;;5.33;3.00;;;;;23.36;44.00;101791.63;4772840;29;44740;-92
2021/07/08 16:37:31;;;;;;;;;;;;;;;;;;;;;
2021/07/08 16:40:03;;;;;;;;;3.00;3.00;;;;;23.22;44.32;101778.50;4855015;29;73358;-92
2021/07/08 16:42:52;;;;;;;;;;;;;;;;;;;;;
2021/07/08 16:45:22;;;;;;;;;4.67;4.00;;;;;23.35;44.82;101797.91;4853246;29;63796;-94
2021/07/08 16:48:09;;;;;;;;;;;;;;;;;;;;;
2021/07/08 16:50:38;;;;;;;;;4.00;4.00;;;;;23.22;45.26;101777.59;4866317;29;72877;-90
2021/07/08 16:53:06;;;;;;;;;4.00;4.00;;;;;23.21;45.03;101775.81;4849514;29;44779;-92
2021/07/08 16:55:53;;;;;;;;;3.67;3.67;;;;;23.29;44.61;101795.34;4870783;29;44729;-92
2021/07/08 16:58:28;;;;;;;;;3.33;2.00;;;;;23.19;44.29;101777.66;4871772;29;45398;-92
2021/07/08 17:01:00;;;;;;;;;3.67;3.67;;;;;23.25;44.70;101789.16;4855088;29;44835;-93
2021/07/08 17:04:12;;;;;;;;;3.00;3.00;;;;;23.22;44.49;101794.59;4855893;29;45395;-94
2021/07/08 17:06:34;;;;;;;;;3.00;3.00;;;;;23.09;45.62;101779.63;4850470;29;45471;-92
2021/07/08 17:12:58;;;;;;;;;4.00;3.67;;;;;23.18;45.56;101798.22;4759735;29;45347;-91
2021/07/08 17:15:25;;;;;;;;;4.00;4.00;;;;;23.12;46.57;101787.59;4818182;24;45546;-89
2021/07/08 17:17:52;;;;;;;;;5.33;4.00;;;;;23.01;46.31;101775.28;4855025;29;45251;-90
2021/07/08 17:20:46;;;;;;;;;4.00;3.00;;;;;22.97;46.26;101783.44;4875358;29;45382;-89
2021/07/08 17:23:15;;;;;;;;;3.00;3.00;;;;;23.00;46.65;101775.31;4874132;23;45478;-89
2021/07/08 17:25:40;;;;;;;;;3.33;3.33;;;;;23.10;46.55;101797.47;4834385;29;45907;-83
2021/07/08 17:28:06;;;;;;;;;4.67;4.67;;;;;23.16;46.18;101807.22;4841986;29;45941;-82
2021/07/08 17:30:32;;;;;;;;;3.67;3.67;;;;;23.14;46.18;101800.06;4844848;29;45381;-83
2021/07/08 17:32:57;;;;;;;;;4.00;3.00;;;;;23.15;46.51;101798.28;4845069;29;45545;-83
2021/07/08 17:35:22;;;;;;;;;2.00;2.00;;;;;23.18;46.72;101808.94;4845125;29;45503;-84
2021/07/08 17:37:48;;;;;;;;;4.00;2.67;;;;;23.19;46.73;101812.50;4844586;29;45352;-82
2021/07/08 17:40:15;;;;;;;;;7.67;4.00;;;;;23.19;46.09;101813.41;4844280;29;45851;-82
2021/07/08 17:42:42;;;;;;;;;4.00;4.00;;;;;23.16;46.34;101820.63;4844699;29;45348;-82
2021/07/08 17:45:10;;;;;;;;;4.33;2.67;;;;;23.13;46.11;101821.56;4844384;29;45216;-82
2021/07/08 17:47:35;;;;;;;;;5.33;4.33;;;;;23.13;46.69;101821.56;4844955;29;45588;-82
2021/07/08 17:50:06;;;;;;;;;2.67;1.67;;;;;23.11;45.61;101823.41;4844586;29;45972;-82
2021/07/08 17:52:32;;;;;;;;;7.00;3.67;;;;;23.02;45.74;101824.44;4844437;29;45228;-82
2021/07/08 17:54:58;;;;;;;;;3.00;3.00;;;;;23.01;45.35;101828.91;4844671;29;45227;-82
2021/07/08 17:57:23;;;;;;;;;4.00;3.00;;;;;22.98;45.08;101828.09;4845018;29;45235;-82
2021/07/08 17:59:48;;;;;;;;;7.00;3.00;;;;;22.95;45.36;101836.19;4844201;29;46233;-82
2021/07/08 18:02:14;;;;;;;;;3.00;3.00;;;;;22.93;45.18;101840.69;4844388;29;45186;-82
2021/07/08 18:04:39;;;;;;;;;2.00;2.00;;;;;22.88;45.29;101832.72;4846832;29;45238;-82
2021/07/08 18:07:06;;;;;;;;;3.67;3.00;;;;;22.86;45.52;101826.50;4847836;29;45315;-82
2021/07/08 18:09:32;;;;;;;;;3.00;2.00;;;;;22.91;45.93;101835.34;4847458;29;45476;-82
2021/07/08 18:12:00;;;;;;;;;3.00;3.00;;;;;22.92;44.85;101844.28;4847019;29;45467;-82
2021/07/08 18:14:26;;;;;;;;;4.67;3.00;;;;;22.91;45.35;101846.06;4847239;29;45339;-82
2021/07/08 18:16:51;;;;;;;;;5.00;4.00;;;;;22.95;45.05;101857.66;4847469;29;45276;-82
2021/07/08 18:19:17;;;;;;;;;4.67;3.33;;;;;22.90;45.44;101857.72;4847302;29;45236;-81
2021/07/08 18:21:42;;;;;;;;;2.00;2.00;;;;;22.93;44.98;101856.78;4847530;29;45286;-82
2021/07/08 18:24:07;;;;;;;;;4.00;4.00;;;;;22.90;46.61;101869.34;4847154;29;45493;-82
2021/07/08 18:26:33;;;;;;;;;3.00;3.00;;;;;22.88;46.33;101856.84;4847134;29;45232;-81
2021/07/08 18:28:58;;;;;;;;;3.67;3.67;;;;;22.89;46.02;101861.28;4847347;29;45350;-81
2021/07/08 18:31:23;;;;;;;;;4.67;4.00;;;;;22.89;46.14;101874.69;4847160;29;45319;-82
2021/07/08 18:33:49;;;;;;;;;7.00;2.33;;;;;22.85;45.83;101873.88;4847154;29;45156;-82
2021/07/08 18:36:14;;;;;;;;;3.00;3.00;;;;;22.83;45.57;101873.00;4847455;29;45237;-83
2021/07/08 18:38:40;;;;;;;;;7.00;4.00;;;;;22.81;45.97;101877.50;4846962;29;45220;-82
2021/07/08 18:41:05;;;;;;;;;3.67;3.67;;;;;22.75;45.92;101878.50;4846874;29;45172;-83
2021/07/08 18:43:30;;;;;;;;;5.00;4.00;;;;;22.76;46.08;101884.75;4846882;29;45726;-82
2021/07/08 18:45:56;;;;;;;;;3.33;3.33;;;;;22.72;46.02;101886.56;4847325;29;45358;-82
2021/07/08 18:48:21;;;;;;;;;7.33;3.00;;;;;22.66;45.66;101875.94;4846944;29;46116;-82
2021/07/08 18:50:47;;;;;;;;;3.00;2.67;;;;;22.68;45.52;101890.22;4847061;29;45352;-82
2021/07/08 18:53:13;;;;;;;;;3.33;3.33;;;;;22.64;45.17;101885.78;4847301;29;45370;-82
2021/07/08 18:55:39;;;;;;;;;4.67;3.33;;;;;22.57;45.33;101882.28;4847189;29;45525;-82
2021/07/08 18:58:04;;;;;;;;;3.00;2.00;;;;;22.57;45.79;101890.34;4846619;29;45902;-82
2021/07/08 19:00:35;;;;;;;;;4.00;3.00;;;;;22.53;46.05;101894.84;4846935;29;45433;-82
2021/07/08 19:03:01;;;;;;;;;3.00;3.00;;;;;22.49;45.79;101894.91;4847152;29;45211;-82
2021/07/08 19:05:26;;;;;;;;;5.00;3.00;;;;;22.46;46.30;101895.88;4846981;29;45306;-83
2021/07/08 19:07:52;;;;;;;;;6.67;4.00;;;;;22.46;46.10;101905.69;4846702;29;45993;-82
2021/07/08 19:10:17;;;;;;;;;3.67;3.67;;;;;22.44;46.20;101908.41;4846718;29;45453;-83
2021/07/08 19:12:42;;;;;;;;;6.67;3.33;;;;;22.38;46.43;101898.63;4846666;29;45340;-83
2021/07/08 19:15:09;;;;;;;;;4.00;4.00;;;;;22.34;46.92;101896.91;4846860;29;45506;-83
2021/07/08 19:17:35;;;;;;;;;4.00;4.00;;;;;22.26;46.37;101883.63;4847584;29;45319;-90
2021/07/08 19:20:08;;;;;;;;;3.00;3.00;;;;;22.20;46.52;101889.06;4837558;29;45337;-91
2021/07/08 19:22:33;;;;;;;;;5.33;3.00;;;;;22.10;46.74;101885.63;4838224;29;45341;-91
2021/07/08 19:24:59;;;;;;;;;4.00;4.00;;;;;22.15;47.09;101891.81;4850198;29;45640;-91
2021/07/08 19:27:25;;;;;;;;;6.00;4.67;;;;;22.13;47.02;101900.75;4832423;29;48258;-92
2021/07/08 19:29:53;;;;;;;;;3.67;3.67;;;;;22.07;47.75;101894.59;4847578;29;45762;-92
2021/07/08 19:32:20;;;;;;;;;6.00;5.00;;;;;22.17;47.73;101916.75;4851512;29;45325;-91
2021/07/08 19:34:47;;;;;;;;;4.33;3.33;;;;;22.02;48.49;101907.13;4850683;29;45626;-90
2021/07/08 19:39:46;;;;;;;;;4.67;4.00;;;;;22.13;48.47;101938.25;4869978;23;71542;-90
2021/07/08 19:42:12;;;;;;;;;2.67;2.67;;;;;21.95;48.25;101911.69;4834356;29;45392;-91
2021/07/08 19:44:38;;;;;;;;;3.33;3.33;;;;;22.09;49.00;101940.97;4833803;29;45243;-92
2021/07/08 19:47:05;;;;;;;;;5.00;4.00;;;;;22.03;48.83;101933.00;4834766;29;47208;-89
2021/07/08 19:49:31;;;;;;;;;4.00;4.00;;;;;21.90;49.08;101917.97;4838657;29;45638;-89
2021/07/08 19:51:57;;;;;;;;;6.00;3.67;;;;;21.97;49.48;101935.75;4841067;29;45335;-91
2021/07/08 19:54:25;;;;;;;;;5.33;4.00;;;;;21.94;49.26;101931.31;4847218;29;44977;-90
2021/07/08 19:56:56;;;;;;;;;5.33;5.00;;;;;21.80;49.10;101918.06;4847818;29;47317;-90
2021/07/08 19:59:21;;;;;;;;;5.00;4.00;;;;;21.83;49.31;101931.44;4872611;29;45130;-89
2021/07/08 20:01:47;;;;;;;;;4.00;4.00;;;;;21.75;49.32;101920.78;4872348;29;44700;-89
2021/07/08 20:04:13;;;;;;;;;6.33;5.67;;;;;21.83;49.60;101943.88;4855872;29;44848;-89
2021/07/08 20:06:39;;;;;;;;;5.33;5.33;;;;;21.77;49.78;101938.59;4849556;29;45278;-90
2021/07/08 20:09:07;;;;;;;;;8.00;6.33;;;;;21.73;49.75;101948.47;4849046;29;45188;-91
2021/07/08 20:11:32;;;;;;;;;7.33;5.00;;;;;21.74;50.29;101955.59;4831902;29;45389;-91
2021/07/08 20:14:01;;;;;;;;;7.67;5.33;;;;;21.82;49.93;101975.16;4831947;29;45441;-92
2021/07/08 20:16:27;;;;;;;;;5.00;4.00;;;;;21.73;50.14;101964.50;4831945;29;48167;-88
2021/07/08 20:18:53;;;;;;;;;5.67;4.67;;;;;21.72;49.84;101968.13;4849696;29;45310;-92
2021/07/08 20:21:20;;;;;;;;;5.00;5.00;;;;;21.79;50.22;101980.50;4833476;29;45329;-91
2021/07/08 20:23:47;;;;;;;;;4.67;3.33;;;;;21.67;49.44;101965.47;4836223;29;45514;-88
2021/07/08 20:26:17;;;;;;;;;4.67;4.67;;;;;21.70;49.80;101984.16;4838510;29;47159;-88
2021/07/08 20:28:47;;;;;;;;;4.00;4.00;;;;;21.73;49.67;101997.53;4851252;29;45333;-89
2021/07/08 20:31:15;;;;;;;;;3.67;3.33;;;;;21.63;50.10;101986.03;4839564;29;45498;-89
2021/07/08 20:33:44;;;;;;;;;4.67;4.00;;;;;21.58;50.48;101993.19;4857655;29;45223;-88
2021/07/08 20:36:14;;;;;;;;;4.00;4.00;;;;;21.50;50.40;101984.34;4850189;29;47514;-89
2021/07/08 20:38:39;;;;;;;;;6.67;6.00;;;;;21.46;50.77;101971.91;4834079;29;45469;-91
2021/07/08 20:41:05;;;;;;;;;4.33;4.00;;;;;21.44;51.35;101979.06;4820949;29;45286;-89
2021/07/08 20:43:31;;;;;;;;;5.00;5.00;;;;;21.45;51.25;101988.88;4849423;29;45223;-90
2021/07/08 20:45:56;;;;;;;;;3.00;3.00;;;;;21.42;51.54;101986.19;4849681;29;45318;-91
2021/07/08 20:48:22;;;;;;;;;4.67;4.00;;;;;21.36;51.79;101982.66;4824758;29;45405;-87
2021/07/08 20:50:59;;;;;;;;;6.00;5.00;;;;;21.39;51.89;101990.69;4872209;24;45266;-89
2021/07/08 20:53:34;;;;;;;;;5.00;5.00;;;;;21.33;52.32;101987.16;4843752;29;45253;-90
2021/07/08 20:56:01;;;;;;;;;5.00;3.67;;;;;21.43;51.87;102009.41;4836261;29;47850;-89
2021/07/08 20:58:27;;;;;;;;;4.00;4.00;;;;;21.32;51.94;102002.31;4833858;29;45199;-92
2021/07/08 21:01:00;;;;;;;;;4.00;4.00;;;;;21.23;51.66;101991.69;4834428;29;44732;-90
2021/07/08 21:03:26;;;;;;;;;5.00;5.00;;;;;21.21;52.14;101988.16;4835779;29;44792;-90
2021/07/08 21:05:53;;;;;;;;;5.00;4.00;;;;;21.20;51.93;101994.38;4833986;29;48343;-90
2021/07/08 21:08:20;;;;;;;;;4.00;4.00;;;;;21.15;52.26;101989.94;4821103;29;45204;-89
2021/07/08 21:10:49;;;;;;;;;4.00;4.00;;;;;21.14;51.89;101985.53;4840101;29;45388;-90
2021/07/08 21:13:15;;;;;;;;;4.00;4.00;;;;;21.24;51.64;102014.84;4824691;29;45327;-90
2021/07/08 21:15:41;;;;;;;;;5.67;3.00;;;;;21.15;51.95;102002.47;4840984;29;47283;-92
2021/07/08 21:18:12;;;;;;;;;5.00;5.00;;;;;21.14;52.39;102008.69;4844551;29;45325;-89
2021/07/08 21:20:40;;;;;;;;;5.33;3.67;;;;;21.11;51.92;101998.03;4843502;29;44804;-89
2021/07/08 21:23:09;;;;;;;;;4.67;4.67;;;;;21.24;51.69;102025.53;4844700;29;45232;-89
2021/07/08 21:25:35;;;;;;;;;5.00;5.00;;;;;21.08;51.87;102003.38;4839980;29;47154;-91